sensor_id;sensor_type;location;lat;lon;timestamp;P1;durP1;ratioP1;P2;durP2;ratioP2
20241;SDS011;10279;46.388;8.116;2024-01-06T00:00:22;27.80;;;4.97;;
20241;SDS011;10279;46.388;8.116;2024-01-06T00:02:50;75.70;;;8.80;;
20241;SDS011;10279;46.388;8.116;2024-01-06T00:05:17;78.23;;;8.50;;
20241;SDS011;10279;46.388;8.116;2024-01-06T00:07:44;32.87;;;5.50;;
20241;SDS011;10279;46.388;8.116;2024-01-06T00:10:11;68.30;;;7.43;;
20241;SDS011;10279;46.388;8.116;2024-01-06T00:12:42;3.53;;;3.07;;
20241;SDS011;10279;46.388;8.116;2024-01-06T00:15:10;71.87;;;6.70;;
20241;SDS011;10279;46.388;8.116;2024-01-06T00:17:37;65.20;;;7.43;;
20241;SDS011;10279;46.388;8.116;2024-01-06T00:20:06;89.73;;;7.03;;
20241;SDS011;10279;46.388;8.116;2024-01-06T00:22:34;55.50;;;6.63;;
20241;SDS011;10279;46.388;8.116;2024-01-06T00:25:02;161.13;;;12.93;;
20241;SDS011;10279;46.388;8.116;2024-01-06T00:27:29;46.47;;;6.03;;
20241;SDS011;10279;46.388;8.116;2024-01-06T00:29:57;105.40;;;10.00;;
20241;SDS011;10279;46.388;8.116;2024-01-06T00:32:24;71.80;;;6.77;;
20241;SDS011;10279;46.388;8.116;2024-01-06T00:34:51;48.87;;;6.67;;
20241;SDS011;10279;46.388;8.116;2024-01-06T00:37:18;48.27;;;6.17;;
20241;SDS011;10279;46.388;8.116;2024-01-06T00:39:45;41.57;;;5.33;;
20241;SDS011;10279;46.388;8.116;2024-01-06T00:42:12;7.63;;;2.83;;
20241;SDS011;10279;46.388;8.116;2024-01-06T00:44:40;4.77;;;3.07;;
20241;SDS011;10279;46.388;8.116;2024-01-06T00:47:07;28.53;;;3.60;;
20241;SDS011;10279;46.388;8.116;2024-01-06T00:49:34;3.13;;;2.37;;
20241;SDS011;10279;46.388;8.116;2024-01-06T00:52:01;3.93;;;2.73;;
20241;SDS011;10279;46.388;8.116;2024-01-06T00:54:29;11.03;;;2.83;;
20241;SDS011;10279;46.388;8.116;2024-01-06T00:56:56;3.67;;;2.53;;
20241;SDS011;10279;46.388;8.116;2024-01-06T00:59:24;19.57;;;3.90;;
20241;SDS011;10279;46.388;8.116;2024-01-06T01:01:51;6.37;;;2.43;;
20241;SDS011;10279;46.388;8.116;2024-01-06T01:04:19;4.37;;;2.23;;
20241;SDS011;10279;46.388;8.116;2024-01-06T01:06:46;3.00;;;2.70;;
20241;SDS011;10279;46.388;8.116;2024-01-06T01:09:13;2.67;;;2.47;;
20241;SDS011;10279;46.388;8.116;2024-01-06T01:11:41;2.70;;;2.50;;
20241;SDS011;10279;46.388;8.116;2024-01-06T01:14:08;3.07;;;2.87;;
20241;SDS011;10279;46.388;8.116;2024-01-06T01:16:35;1.27;;;1.23;;
20241;SDS011;10279;46.388;8.116;2024-01-06T01:19:03;1.60;;;1.50;;
20241;SDS011;10279;46.388;8.116;2024-01-06T01:21:30;1.37;;;1.27;;
20241;SDS011;10279;46.388;8.116;2024-01-06T01:23:57;1.30;;;1.20;;
20241;SDS011;10279;46.388;8.116;2024-01-06T01:26:25;1.00;;;0.90;;
20241;SDS011;10279;46.388;8.116;2024-01-06T01:28:52;1.50;;;1.40;;
20241;SDS011;10279;46.388;8.116;2024-01-06T01:31:19;1.30;;;1.20;;
20241;SDS011;10279;46.388;8.116;2024-01-06T01:33:47;1.53;;;1.37;;
20241;SDS011;10279;46.388;8.116;2024-01-06T01:36:14;1.40;;;1.30;;
20241;SDS011;10279;46.388;8.116;2024-01-06T01:38:41;1.30;;;1.20;;
20241;SDS011;10279;46.388;8.116;2024-01-06T01:41:08;1.53;;;1.43;;
20241;SDS011;10279;46.388;8.116;2024-01-06T01:43:35;1.70;;;1.60;;
20241;SDS011;10279;46.388;8.116;2024-01-06T01:46:03;1.30;;;1.27;;
20241;SDS011;10279;46.388;8.116;2024-01-06T01:48:30;1.67;;;1.57;;
20241;SDS011;10279;46.388;8.116;2024-01-06T01:51:01;2.30;;;1.70;;
20241;SDS011;10279;46.388;8.116;2024-01-06T01:53:29;1.80;;;1.70;;
20241;SDS011;10279;46.388;8.116;2024-01-06T01:55:58;1.90;;;1.70;;
20241;SDS011;10279;46.388;8.116;2024-01-06T01:58:25;1.40;;;1.30;;
20241;SDS011;10279;46.388;8.116;2024-01-06T02:00:53;1.70;;;1.60;;
20241;SDS011;10279;46.388;8.116;2024-01-06T02:03:20;1.33;;;1.23;;
20241;SDS011;10279;46.388;8.116;2024-01-06T02:05:49;1.40;;;1.30;;
20241;SDS011;10279;46.388;8.116;2024-01-06T02:08:16;1.67;;;1.57;;
20241;SDS011;10279;46.388;8.116;2024-01-06T02:10:43;2.20;;;2.00;;
20241;SDS011;10279;46.388;8.116;2024-01-06T02:13:10;1.93;;;1.80;;
20241;SDS011;10279;46.388;8.116;2024-01-06T02:15:39;1.80;;;1.70;;
20241;SDS011;10279;46.388;8.116;2024-01-06T02:18:07;1.63;;;1.53;;
20241;SDS011;10279;46.388;8.116;2024-01-06T02:20:36;2.10;;;1.90;;
20241;SDS011;10279;46.388;8.116;2024-01-06T02:23:04;2.40;;;2.20;;
20241;SDS011;10279;46.388;8.116;2024-01-06T02:25:31;2.60;;;2.40;;
20241;SDS011;10279;46.388;8.116;2024-01-06T02:27:58;3.03;;;2.73;;
20241;SDS011;10279;46.388;8.116;2024-01-06T02:30:25;2.90;;;2.70;;
20241;SDS011;10279;46.388;8.116;2024-01-06T02:32:53;3.13;;;2.83;;
20241;SDS011;10279;46.388;8.116;2024-01-06T02:35:20;3.10;;;2.80;;
20241;SDS011;10279;46.388;8.116;2024-01-06T02:37:47;2.93;;;2.73;;
20241;SDS011;10279;46.388;8.116;2024-01-06T02:40:14;2.90;;;2.60;;
20241;SDS011;10279;46.388;8.116;2024-01-06T02:42:41;2.43;;;2.23;;
20241;SDS011;10279;46.388;8.116;2024-01-06T02:45:09;6.30;;;2.40;;
20241;SDS011;10279;46.388;8.116;2024-01-06T02:47:36;2.30;;;2.10;;
20241;SDS011;10279;46.388;8.116;2024-01-06T02:50:04;2.07;;;1.87;;
20241;SDS011;10279;46.388;8.116;2024-01-06T02:52:32;2.37;;;2.17;;
20241;SDS011;10279;46.388;8.116;2024-01-06T02:54:59;2.80;;;2.60;;
20241;SDS011;10279;46.388;8.116;2024-01-06T02:57:29;2.80;;;2.60;;
20241;SDS011;10279;46.388;8.116;2024-01-06T02:59:57;2.80;;;2.60;;
20241;SDS011;10279;46.388;8.116;2024-01-06T03:02:24;3.30;;;3.00;;
20241;SDS011;10279;46.388;8.116;2024-01-06T03:04:51;3.20;;;2.90;;
20241;SDS011;10279;46.388;8.116;2024-01-06T03:07:19;3.37;;;3.07;;
20241;SDS011;10279;46.388;8.116;2024-01-06T03:09:46;3.33;;;3.03;;
20241;SDS011;10279;46.388;8.116;2024-01-06T03:12:13;3.23;;;2.37;;
20241;SDS011;10279;46.388;8.116;2024-01-06T03:14:41;3.13;;;2.70;;
20241;SDS011;10279;46.388;8.116;2024-01-06T03:17:08;4.23;;;2.73;;
20241;SDS011;10279;46.388;8.116;2024-01-06T03:19:37;3.60;;;3.27;;
20241;SDS011;10279;46.388;8.116;2024-01-06T03:22:05;2.73;;;2.53;;
20241;SDS011;10279;46.388;8.116;2024-01-06T03:24:32;3.50;;;3.20;;
20241;SDS011;10279;46.388;8.116;2024-01-06T03:26:59;3.73;;;3.17;;
20241;SDS011;10279;46.388;8.116;2024-01-06T03:29:26;3.13;;;2.83;;
20241;SDS011;10279;46.388;8.116;2024-01-06T03:31:54;3.67;;;3.20;;
20241;SDS011;10279;46.388;8.116;2024-01-06T03:34:21;3.80;;;3.40;;
20241;SDS011;10279;46.388;8.116;2024-01-06T03:36:48;3.43;;;3.13;;
20241;SDS011;10279;46.388;8.116;2024-01-06T03:39:15;4.10;;;3.10;;
20241;SDS011;10279;46.388;8.116;2024-01-06T03:41:43;2.90;;;2.70;;
20241;SDS011;10279;46.388;8.116;2024-01-06T03:44:10;4.00;;;2.70;;
20241;SDS011;10279;46.388;8.116;2024-01-06T03:46:37;3.00;;;2.70;;
20241;SDS011;10279;46.388;8.116;2024-01-06T03:49:04;3.50;;;3.20;;
20241;SDS011;10279;46.388;8.116;2024-01-06T03:51:31;3.97;;;3.57;;
20241;SDS011;10279;46.388;8.116;2024-01-06T03:53:58;3.27;;;2.93;;
20241;SDS011;10279;46.388;8.116;2024-01-06T03:56:26;3.90;;;3.50;;
20241;SDS011;10279;46.388;8.116;2024-01-06T03:58:53;3.77;;;3.37;;
20241;SDS011;10279;46.388;8.116;2024-01-06T04:01:20;4.03;;;3.63;;
20241;SDS011;10279;46.388;8.116;2024-01-06T04:03:48;4.17;;;3.43;;
20241;SDS011;10279;46.388;8.116;2024-01-06T04:06:15;3.87;;;3.47;;
20241;SDS011;10279;46.388;8.116;2024-01-06T04:08:42;4.00;;;3.60;;
20241;SDS011;10279;46.388;8.116;2024-01-06T04:11:09;4.13;;;3.70;;
20241;SDS011;10279;46.388;8.116;2024-01-06T04:13:37;4.10;;;3.70;;
20241;SDS011;10279;46.388;8.116;2024-01-06T04:16:04;4.17;;;3.77;;
20241;SDS011;10279;46.388;8.116;2024-01-06T04:18:31;4.23;;;3.77;;
20241;SDS011;10279;46.388;8.116;2024-01-06T04:20:59;5.67;;;3.53;;
20241;SDS011;10279;46.388;8.116;2024-01-06T04:23:26;6.00;;;3.23;;
20241;SDS011;10279;46.388;8.116;2024-01-06T04:25:53;4.53;;;3.90;;
20241;SDS011;10279;46.388;8.116;2024-01-06T04:28:20;3.93;;;3.47;;
20241;SDS011;10279;46.388;8.116;2024-01-06T04:30:47;3.50;;;3.20;;
20241;SDS011;10279;46.388;8.116;2024-01-06T04:33:15;4.73;;;3.70;;
20241;SDS011;10279;46.388;8.116;2024-01-06T04:35:42;4.10;;;3.70;;
20241;SDS011;10279;46.388;8.116;2024-01-06T04:38:09;3.93;;;3.50;;
20241;SDS011;10279;46.388;8.116;2024-01-06T04:40:37;3.57;;;3.23;;
20241;SDS011;10279;46.388;8.116;2024-01-06T04:43:04;3.50;;;3.20;;
20241;SDS011;10279;46.388;8.116;2024-01-06T04:45:31;3.37;;;3.07;;
20241;SDS011;10279;46.388;8.116;2024-01-06T04:47:58;3.47;;;3.13;;
20241;SDS011;10279;46.388;8.116;2024-01-06T04:50:25;4.20;;;3.70;;
20241;SDS011;10279;46.388;8.116;2024-01-06T04:52:53;4.33;;;3.70;;
20241;SDS011;10279;46.388;8.116;2024-01-06T04:55:20;4.13;;;3.73;;
20241;SDS011;10279;46.388;8.116;2024-01-06T04:57:48;3.87;;;3.30;;
20241;SDS011;10279;46.388;8.116;2024-01-06T05:00:16;3.70;;;3.17;;
20241;SDS011;10279;46.388;8.116;2024-01-06T05:02:43;4.30;;;3.90;;
20241;SDS011;10279;46.388;8.116;2024-01-06T05:05:11;3.97;;;3.57;;
20241;SDS011;10279;46.388;8.116;2024-01-06T05:07:38;4.30;;;3.90;;
20241;SDS011;10279;46.388;8.116;2024-01-06T05:10:06;4.17;;;3.77;;
20241;SDS011;10279;46.388;8.116;2024-01-06T05:12:34;4.83;;;4.23;;
20241;SDS011;10279;46.388;8.116;2024-01-06T05:15:01;5.63;;;4.37;;
20241;SDS011;10279;46.388;8.116;2024-01-06T05:17:28;4.87;;;4.13;;
20241;SDS011;10279;46.388;8.116;2024-01-06T05:19:56;5.63;;;4.73;;
20241;SDS011;10279;46.388;8.116;2024-01-06T05:22:23;5.40;;;4.50;;
20241;SDS011;10279;46.388;8.116;2024-01-06T05:24:50;4.00;;;3.67;;
20241;SDS011;10279;46.388;8.116;2024-01-06T05:27:20;5.73;;;3.73;;
20241;SDS011;10279;46.388;8.116;2024-01-06T05:29:47;4.07;;;3.67;;
20241;SDS011;10279;46.388;8.116;2024-01-06T05:32:16;4.17;;;3.60;;
20241;SDS011;10279;46.388;8.116;2024-01-06T05:34:44;5.23;;;4.17;;
20241;SDS011;10279;46.388;8.116;2024-01-06T05:37:12;5.00;;;4.47;;
20241;SDS011;10279;46.388;8.116;2024-01-06T05:39:39;5.83;;;3.37;;
20241;SDS011;10279;46.388;8.116;2024-01-06T05:42:08;3.27;;;2.97;;
20241;SDS011;10279;46.388;8.116;2024-01-06T05:44:39;4.97;;;3.10;;
20241;SDS011;10279;46.388;8.116;2024-01-06T05:47:07;2.43;;;2.23;;
20241;SDS011;10279;46.388;8.116;2024-01-06T05:49:35;2.40;;;2.20;;
20241;SDS011;10279;46.388;8.116;2024-01-06T05:52:02;2.43;;;2.13;;
20241;SDS011;10279;46.388;8.116;2024-01-06T05:54:30;3.37;;;2.23;;
20241;SDS011;10279;46.388;8.116;2024-01-06T05:56:57;3.33;;;2.50;;
20241;SDS011;10279;46.388;8.116;2024-01-06T05:59:25;3.60;;;3.30;;
20241;SDS011;10279;46.388;8.116;2024-01-06T06:01:52;3.20;;;2.90;;
20241;SDS011;10279;46.388;8.116;2024-01-06T06:04:19;3.93;;;2.73;;
20241;SDS011;10279;46.388;8.116;2024-01-06T06:06:46;3.77;;;3.20;;
20241;SDS011;10279;46.388;8.116;2024-01-06T06:09:14;4.13;;;3.30;;
20241;SDS011;10279;46.388;8.116;2024-01-06T06:11:42;4.37;;;3.90;;
20241;SDS011;10279;46.388;8.116;2024-01-06T06:14:09;4.20;;;3.80;;
20241;SDS011;10279;46.388;8.116;2024-01-06T06:16:36;3.17;;;2.87;;
20241;SDS011;10279;46.388;8.116;2024-01-06T06:19:03;3.27;;;2.97;;
20241;SDS011;10279;46.388;8.116;2024-01-06T06:21:31;3.73;;;3.30;;
20241;SDS011;10279;46.388;8.116;2024-01-06T06:23:58;4.17;;;3.50;;
20241;SDS011;10279;46.388;8.116;2024-01-06T06:26:27;3.93;;;3.47;;
20241;SDS011;10279;46.388;8.116;2024-01-06T06:28:55;5.50;;;3.70;;
20241;SDS011;10279;46.388;8.116;2024-01-06T06:31:22;3.73;;;3.37;;
20241;SDS011;10279;46.388;8.116;2024-01-06T06:33:49;3.97;;;3.13;;
20241;SDS011;10279;46.388;8.116;2024-01-06T06:36:16;3.73;;;3.20;;
20241;SDS011;10279;46.388;8.116;2024-01-06T06:38:44;3.07;;;2.77;;
20241;SDS011;10279;46.388;8.116;2024-01-06T06:41:11;4.83;;;3.00;;
20241;SDS011;10279;46.388;8.116;2024-01-06T06:43:38;3.83;;;2.97;;
20241;SDS011;10279;46.388;8.116;2024-01-06T06:46:05;3.67;;;3.00;;
20241;SDS011;10279;46.388;8.116;2024-01-06T06:48:33;4.40;;;2.70;;
20241;SDS011;10279;46.388;8.116;2024-01-06T06:51:02;4.47;;;3.93;;
20241;SDS011;10279;46.388;8.116;2024-01-06T06:53:30;4.93;;;4.20;;
20241;SDS011;10279;46.388;8.116;2024-01-06T06:55:57;4.63;;;4.13;;
20241;SDS011;10279;46.388;8.116;2024-01-06T06:58:24;5.47;;;4.57;;
20241;SDS011;10279;46.388;8.116;2024-01-06T07:00:52;5.60;;;4.20;;
20241;SDS011;10279;46.388;8.116;2024-01-06T07:03:20;5.57;;;4.07;;
20241;SDS011;10279;46.388;8.116;2024-01-06T07:05:48;5.50;;;3.40;;
20241;SDS011;10279;46.388;8.116;2024-01-06T07:08:15;5.07;;;3.53;;
20241;SDS011;10279;46.388;8.116;2024-01-06T07:10:42;4.23;;;3.83;;
20241;SDS011;10279;46.388;8.116;2024-01-06T07:13:10;4.63;;;4.13;;
20241;SDS011;10279;46.388;8.116;2024-01-06T07:15:37;6.17;;;4.30;;
20241;SDS011;10279;46.388;8.116;2024-01-06T07:18:04;6.00;;;5.40;;
20241;SDS011;10279;46.388;8.116;2024-01-06T07:20:31;5.10;;;4.57;;
20241;SDS011;10279;46.388;8.116;2024-01-06T07:22:58;4.40;;;4.00;;
20241;SDS011;10279;46.388;8.116;2024-01-06T07:25:25;5.43;;;4.87;;
20241;SDS011;10279;46.388;8.116;2024-01-06T07:27:53;5.30;;;4.30;;
20241;SDS011;10279;46.388;8.116;2024-01-06T07:30:21;5.63;;;4.80;;
20241;SDS011;10279;46.388;8.116;2024-01-06T07:32:48;6.30;;;5.27;;
20241;SDS011;10279;46.388;8.116;2024-01-06T07:35:17;7.03;;;5.30;;
20241;SDS011;10279;46.388;8.116;2024-01-06T07:37:44;6.30;;;4.60;;
20241;SDS011;10279;46.388;8.116;2024-01-06T07:40:11;6.30;;;4.80;;
20241;SDS011;10279;46.388;8.116;2024-01-06T07:42:43;6.73;;;5.00;;
20241;SDS011;10279;46.388;8.116;2024-01-06T07:45:10;8.23;;;4.67;;
20241;SDS011;10279;46.388;8.116;2024-01-06T07:47:40;6.10;;;4.67;;
20241;SDS011;10279;46.388;8.116;2024-01-06T07:50:07;5.97;;;5.10;;
20241;SDS011;10279;46.388;8.116;2024-01-06T07:52:35;9.57;;;6.53;;
20241;SDS011;10279;46.388;8.116;2024-01-06T07:55:02;5.70;;;5.10;;
20241;SDS011;10279;46.388;8.116;2024-01-06T07:57:29;5.37;;;4.73;;
20241;SDS011;10279;46.388;8.116;2024-01-06T07:59:57;6.67;;;5.07;;
20241;SDS011;10279;46.388;8.116;2024-01-06T08:02:27;8.00;;;6.60;;
20241;SDS011;10279;46.388;8.116;2024-01-06T08:04:54;9.47;;;6.60;;
20241;SDS011;10279;46.388;8.116;2024-01-06T08:07:22;10.63;;;7.40;;
20241;SDS011;10279;46.388;8.116;2024-01-06T08:09:49;6.57;;;5.10;;
20241;SDS011;10279;46.388;8.116;2024-01-06T08:12:17;5.80;;;4.63;;
20241;SDS011;10279;46.388;8.116;2024-01-06T08:14:44;8.30;;;5.83;;
20241;SDS011;10279;46.388;8.116;2024-01-06T08:17:11;11.93;;;7.23;;
20241;SDS011;10279;46.388;8.116;2024-01-06T08:19:41;11.77;;;7.47;;
20241;SDS011;10279;46.388;8.116;2024-01-06T08:22:09;9.63;;;6.63;;
20241;SDS011;10279;46.388;8.116;2024-01-06T08:24:36;10.40;;;7.33;;
20241;SDS011;10279;46.388;8.116;2024-01-06T08:27:03;9.03;;;6.50;;
20241;SDS011;10279;46.388;8.116;2024-01-06T08:29:31;9.03;;;6.70;;
20241;SDS011;10279;46.388;8.116;2024-01-06T08:31:58;9.60;;;6.50;;
20241;SDS011;10279;46.388;8.116;2024-01-06T08:34:25;4.33;;;3.90;;
20241;SDS011;10279;46.388;8.116;2024-01-06T08:36:58;6.53;;;5.23;;
20241;SDS011;10279;46.388;8.116;2024-01-06T08:39:25;4.53;;;3.83;;
20241;SDS011;10279;46.388;8.116;2024-01-06T08:41:53;2.97;;;2.67;;
20241;SDS011;10279;46.388;8.116;2024-01-06T08:44:24;3.40;;;3.10;;
20241;SDS011;10279;46.388;8.116;2024-01-06T08:46:51;2.77;;;2.57;;
20241;SDS011;10279;46.388;8.116;2024-01-06T08:49:18;3.20;;;2.80;;
20241;SDS011;10279;46.388;8.116;2024-01-06T08:51:45;3.73;;;3.03;;
20241;SDS011;10279;46.388;8.116;2024-01-06T08:54:12;3.43;;;2.57;;
20241;SDS011;10279;46.388;8.116;2024-01-06T08:56:40;3.50;;;2.97;;
20241;SDS011;10279;46.388;8.116;2024-01-06T08:59:07;3.20;;;2.73;;
20241;SDS011;10279;46.388;8.116;2024-01-06T09:01:34;3.60;;;2.70;;
20241;SDS011;10279;46.388;8.116;2024-01-06T09:04:02;3.10;;;2.80;;
20241;SDS011;10279;46.388;8.116;2024-01-06T09:06:30;3.63;;;2.90;;
20241;SDS011;10279;46.388;8.116;2024-01-06T09:08:58;3.30;;;2.43;;
20241;SDS011;10279;46.388;8.116;2024-01-06T09:11:25;3.97;;;3.20;;
20241;SDS011;10279;46.388;8.116;2024-01-06T09:13:52;3.43;;;2.90;;
20241;SDS011;10279;46.388;8.116;2024-01-06T09:16:19;3.00;;;2.70;;
20241;SDS011;10279;46.388;8.116;2024-01-06T09:18:46;4.90;;;3.07;;
20241;SDS011;10279;46.388;8.116;2024-01-06T09:21:14;3.47;;;2.87;;
20241;SDS011;10279;46.388;8.116;2024-01-06T09:23:44;3.30;;;3.00;;
20241;SDS011;10279;46.388;8.116;2024-01-06T09:26:11;3.57;;;3.07;;
20241;SDS011;10279;46.388;8.116;2024-01-06T09:28:38;3.40;;;2.87;;
20241;SDS011;10279;46.388;8.116;2024-01-06T09:31:06;3.63;;;3.20;;
20241;SDS011;10279;46.388;8.116;2024-01-06T09:33:33;4.23;;;3.43;;
20241;SDS011;10279;46.388;8.116;2024-01-06T09:36:01;3.83;;;3.43;;
20241;SDS011;10279;46.388;8.116;2024-01-06T09:38:28;4.47;;;3.40;;
20241;SDS011;10279;46.388;8.116;2024-01-06T09:40:55;3.70;;;3.13;;
20241;SDS011;10279;46.388;8.116;2024-01-06T09:43:24;3.77;;;3.13;;
20241;SDS011;10279;46.388;8.116;2024-01-06T09:45:58;7.10;;;3.77;;
20241;SDS011;10279;46.388;8.116;2024-01-06T09:48:32;4.57;;;3.60;;
20241;SDS011;10279;46.388;8.116;2024-01-06T09:51:06;5.23;;;3.90;;
20241;SDS011;10279;46.388;8.116;2024-01-06T09:53:40;5.87;;;3.93;;
20241;SDS011;10279;46.388;8.116;2024-01-06T09:56:15;5.50;;;3.93;;
20241;SDS011;10279;46.388;8.116;2024-01-06T09:58:43;6.73;;;4.23;;
20241;SDS011;10279;46.388;8.116;2024-01-06T10:01:11;7.27;;;4.00;;
20241;SDS011;10279;46.388;8.116;2024-01-06T10:03:41;5.27;;;4.13;;
20241;SDS011;10279;46.388;8.116;2024-01-06T10:06:09;7.17;;;4.27;;
20241;SDS011;10279;46.388;8.116;2024-01-06T10:08:37;10.20;;;4.53;;
20241;SDS011;10279;46.388;8.116;2024-01-06T10:11:07;7.40;;;4.50;;
20241;SDS011;10279;46.388;8.116;2024-01-06T10:13:36;11.90;;;5.00;;
20241;SDS011;10279;46.388;8.116;2024-01-06T10:16:06;26.13;;;6.70;;
20241;SDS011;10279;46.388;8.116;2024-01-06T10:18:33;6.93;;;5.13;;
20241;SDS011;10279;46.388;8.116;2024-01-06T10:21:05;7.90;;;4.30;;
20241;SDS011;10279;46.388;8.116;2024-01-06T10:23:33;10.70;;;5.80;;
20241;SDS011;10279;46.388;8.116;2024-01-06T10:26:00;10.70;;;5.33;;
20241;SDS011;10279;46.388;8.116;2024-01-06T10:28:31;11.63;;;6.07;;
20241;SDS011;10279;46.388;8.116;2024-01-06T10:30:59;24.47;;;5.90;;
20241;SDS011;10279;46.388;8.116;2024-01-06T10:33:26;5.67;;;4.57;;
20241;SDS011;10279;46.388;8.116;2024-01-06T10:35:54;7.60;;;4.80;;
20241;SDS011;10279;46.388;8.116;2024-01-06T10:38:25;9.73;;;5.17;;
20241;SDS011;10279;46.388;8.116;2024-01-06T10:43:26;14.87;;;6.07;;
20241;SDS011;10279;46.388;8.116;2024-01-06T10:45:58;7.10;;;4.97;;
20241;SDS011;10279;46.388;8.116;2024-01-06T10:48:31;6.27;;;4.50;;
20241;SDS011;10279;46.388;8.116;2024-01-06T10:51:05;4.63;;;3.87;;
20241;SDS011;10279;46.388;8.116;2024-01-06T10:53:34;4.50;;;3.83;;
20241;SDS011;10279;46.388;8.116;2024-01-06T10:56:06;4.97;;;4.10;;
20241;SDS011;10279;46.388;8.116;2024-01-06T10:58:35;4.90;;;3.80;;
20241;SDS011;10279;46.388;8.116;2024-01-06T11:01:09;5.43;;;4.03;;
20241;SDS011;10279;46.388;8.116;2024-01-06T11:03:37;4.53;;;3.63;;
20241;SDS011;10279;46.388;8.116;2024-01-06T11:06:06;3.33;;;2.90;;
20241;SDS011;10279;46.388;8.116;2024-01-06T11:08:48;3.87;;;3.20;;
20241;SDS011;10279;46.388;8.116;2024-01-06T11:11:23;3.80;;;3.03;;
20241;SDS011;10279;46.388;8.116;2024-01-06T11:13:51;2.97;;;2.50;;
20241;SDS011;10279;46.388;8.116;2024-01-06T11:16:34;2.93;;;2.63;;
20241;SDS011;10279;46.388;8.116;2024-01-06T11:19:03;2.90;;;2.43;;
20241;SDS011;10279;46.388;8.116;2024-01-06T11:25:05;3.03;;;2.73;;
20241;SDS011;10279;46.388;8.116;2024-01-06T11:27:34;4.70;;;2.90;;
20241;SDS011;10279;46.388;8.116;2024-01-06T11:30:03;4.90;;;3.40;;
20241;SDS011;10279;46.388;8.116;2024-01-06T11:32:35;2.93;;;2.50;;
20241;SDS011;10279;46.388;8.116;2024-01-06T11:35:07;4.17;;;2.70;;
20241;SDS011;10279;46.388;8.116;2024-01-06T11:43:02;4.43;;;2.90;;
20241;SDS011;10279;46.388;8.116;2024-01-06T11:45:37;4.00;;;2.73;;
20241;SDS011;10279;46.388;8.116;2024-01-06T11:48:08;3.03;;;2.73;;
20241;SDS011;10279;46.388;8.116;2024-01-06T11:50:40;3.57;;;3.00;;
20241;SDS011;10279;46.388;8.116;2024-01-06T11:53:08;4.67;;;3.40;;
20241;SDS011;10279;46.388;8.116;2024-01-06T11:55:38;4.13;;;3.40;;
20241;SDS011;10279;46.388;8.116;2024-01-06T11:58:06;4.30;;;3.27;;
20241;SDS011;10279;46.388;8.116;2024-01-06T12:00:34;4.10;;;3.50;;
20241;SDS011;10279;46.388;8.116;2024-01-06T12:03:07;3.53;;;3.23;;
20241;SDS011;10279;46.388;8.116;2024-01-06T12:05:34;3.50;;;3.00;;
20241;SDS011;10279;46.388;8.116;2024-01-06T12:08:03;8.30;;;4.03;;
20241;SDS011;10279;46.388;8.116;2024-01-06T12:10:34;3.50;;;3.03;;
20241;SDS011;10279;46.388;8.116;2024-01-06T12:13:03;5.60;;;3.07;;
20241;SDS011;10279;46.388;8.116;2024-01-06T12:15:37;5.37;;;3.40;;
20241;SDS011;10279;46.388;8.116;2024-01-06T12:18:06;2.73;;;2.50;;
20241;SDS011;10279;46.388;8.116;2024-01-06T12:20:34;7.40;;;2.30;;
20241;SDS011;10279;46.388;8.116;2024-01-06T12:23:01;2.53;;;2.10;;
20241;SDS011;10279;46.388;8.116;2024-01-06T12:25:34;2.60;;;2.30;;
20241;SDS011;10279;46.388;8.116;2024-01-06T12:28:06;3.60;;;2.57;;
20241;SDS011;10279;46.388;8.116;2024-01-06T12:30:34;4.07;;;2.57;;
20241;SDS011;10279;46.388;8.116;2024-01-06T12:33:03;3.00;;;2.70;;
20241;SDS011;10279;46.388;8.116;2024-01-06T12:35:30;2.30;;;2.10;;
20241;SDS011;10279;46.388;8.116;2024-01-06T12:37:58;2.87;;;2.30;;
20241;SDS011;10279;46.388;8.116;2024-01-06T12:40:26;3.37;;;2.27;;
20241;SDS011;10279;46.388;8.116;2024-01-06T12:42:54;2.00;;;1.80;;
20241;SDS011;10279;46.388;8.116;2024-01-06T12:45:21;2.10;;;1.90;;
20241;SDS011;10279;46.388;8.116;2024-01-06T12:47:49;3.23;;;2.30;;
20241;SDS011;10279;46.388;8.116;2024-01-06T12:50:16;2.73;;;2.20;;
20241;SDS011;10279;46.388;8.116;2024-01-06T12:52:43;3.30;;;2.07;;
20241;SDS011;10279;46.388;8.116;2024-01-06T12:55:12;3.43;;;2.47;;
20241;SDS011;10279;46.388;8.116;2024-01-06T12:57:40;2.93;;;2.30;;
20241;SDS011;10279;46.388;8.116;2024-01-06T13:00:08;3.53;;;2.10;;
20241;SDS011;10279;46.388;8.116;2024-01-06T13:02:38;2.77;;;2.20;;
20241;SDS011;10279;46.388;8.116;2024-01-06T13:05:05;4.23;;;2.60;;
20241;SDS011;10279;46.388;8.116;2024-01-06T13:07:34;4.10;;;2.10;;
20241;SDS011;10279;46.388;8.116;2024-01-06T13:10:01;4.07;;;1.97;;
20241;SDS011;10279;46.388;8.116;2024-01-06T13:12:29;2.27;;;1.90;;
20241;SDS011;10279;46.388;8.116;2024-01-06T13:14:56;4.23;;;2.30;;
20241;SDS011;10279;46.388;8.116;2024-01-06T13:17:25;2.40;;;2.20;;
20241;SDS011;10279;46.388;8.116;2024-01-06T13:19:52;2.50;;;2.30;;
20241;SDS011;10279;46.388;8.116;2024-01-06T13:22:20;2.97;;;2.67;;
20241;SDS011;10279;46.388;8.116;2024-01-06T13:24:48;2.47;;;2.10;;
20241;SDS011;10279;46.388;8.116;2024-01-06T13:27:19;2.60;;;2.40;;
20241;SDS011;10279;46.388;8.116;2024-01-06T13:29:46;3.03;;;2.20;;
20241;SDS011;10279;46.388;8.116;2024-01-06T13:32:14;3.70;;;2.33;;
20241;SDS011;10279;46.388;8.116;2024-01-06T13:34:41;3.17;;;2.23;;
20241;SDS011;10279;46.388;8.116;2024-01-06T13:37:09;2.60;;;2.33;;
20241;SDS011;10279;46.388;8.116;2024-01-06T13:39:37;2.77;;;2.37;;
20241;SDS011;10279;46.388;8.116;2024-01-06T13:42:04;2.50;;;2.10;;
20241;SDS011;10279;46.388;8.116;2024-01-06T13:44:32;2.13;;;1.93;;
20241;SDS011;10279;46.388;8.116;2024-01-06T13:47:00;2.53;;;2.27;;
20241;SDS011;10279;46.388;8.116;2024-01-06T13:49:27;2.33;;;2.13;;
20241;SDS011;10279;46.388;8.116;2024-01-06T13:51:54;2.17;;;1.97;;
20241;SDS011;10279;46.388;8.116;2024-01-06T13:54:23;1.70;;;1.60;;
20241;SDS011;10279;46.388;8.116;2024-01-06T13:56:50;2.03;;;1.77;;
20241;SDS011;10279;46.388;8.116;2024-01-06T13:59:18;2.03;;;1.60;;
20241;SDS011;10279;46.388;8.116;2024-01-06T14:01:45;1.97;;;1.70;;
20241;SDS011;10279;46.388;8.116;2024-01-06T14:04:13;1.93;;;1.77;;
20241;SDS011;10279;46.388;8.116;2024-01-06T14:06:41;1.73;;;1.63;;
20241;SDS011;10279;46.388;8.116;2024-01-06T14:09:08;2.07;;;1.87;;
20241;SDS011;10279;46.388;8.116;2024-01-06T14:11:35;1.80;;;1.70;;
20241;SDS011;10279;46.388;8.116;2024-01-06T14:14:03;2.00;;;1.80;;
20241;SDS011;10279;46.388;8.116;2024-01-06T14:16:31;1.90;;;1.77;;
20241;SDS011;10279;46.388;8.116;2024-01-06T14:18:58;1.90;;;1.70;;
20241;SDS011;10279;46.388;8.116;2024-01-06T14:21:26;2.27;;;1.87;;
20241;SDS011;10279;46.388;8.116;2024-01-06T14:23:54;1.83;;;1.60;;
20241;SDS011;10279;46.388;8.116;2024-01-06T14:26:22;2.10;;;1.53;;
20241;SDS011;10279;46.388;8.116;2024-01-06T14:28:50;1.63;;;1.50;;
20241;SDS011;10279;46.388;8.116;2024-01-06T14:31:17;2.03;;;1.83;;
20241;SDS011;10279;46.388;8.116;2024-01-06T14:33:45;2.60;;;2.23;;
20241;SDS011;10279;46.388;8.116;2024-01-06T14:36:12;2.20;;;2.00;;
20241;SDS011;10279;46.388;8.116;2024-01-06T14:38:39;3.27;;;2.03;;
20241;SDS011;10279;46.388;8.116;2024-01-06T14:41:06;1.77;;;1.63;;
20241;SDS011;10279;46.388;8.116;2024-01-06T14:43:34;1.57;;;1.47;;
20241;SDS011;10279;46.388;8.116;2024-01-06T14:46:01;2.07;;;1.67;;
20241;SDS011;10279;46.388;8.116;2024-01-06T14:48:29;1.97;;;1.70;;
20241;SDS011;10279;46.388;8.116;2024-01-06T14:50:56;2.27;;;1.73;;
20241;SDS011;10279;46.388;8.116;2024-01-06T14:53:23;1.80;;;1.70;;
20241;SDS011;10279;46.388;8.116;2024-01-06T14:55:50;2.10;;;1.90;;
20241;SDS011;10279;46.388;8.116;2024-01-06T14:58:17;2.30;;;1.90;;
20241;SDS011;10279;46.388;8.116;2024-01-06T15:00:45;4.30;;;2.07;;